Time;durP1;ratioP1;P1;durP2;ratioP2;P2;SDS_P1;SDS_P2;PMS_P1;PMS_P2;Temp;Humidity;BMP_temperature;BMP_pressure;BME280_temperature;BME280_humidity;BME280_pressure;Samples;Min_cycle;Max_cycle;Signal;HPM_P1;HPM_P2
2023/12/22 15:20:38;;;;;;;5.22;1.40;;;;;;;12.24;39.00;91333.44;5109621;27;20113;-78
2023/12/22 15:23:03;;;;;;;5.13;0.98;;;;;;;11.98;39.49;91332.91;5109670;28;20131;-78
2023/12/22 15:25:31;;;;;;;1.38;1.20;;;;;;;11.85;39.17;91332.09;5111051;28;20467;-78
2023/12/22 15:27:56;;;;;;;2.88;1.30;;;;;;;11.76;39.52;91320.91;5110906;28;20038;-78
2023/12/22 15:30:25;;;;;;;0.90;0.88;;;;;;;11.77;38.19;91323.19;5112313;28;20097;-78
2023/12/22 15:32:50;;;;;;;0.80;0.80;;;;;;;11.62;39.84;91315.94;5112254;28;20089;-78
2023/12/22 15:35:16;;;;;;;0.90;0.80;;;;;;;11.55;39.94;91311.19;5090192;28;20392;-78
2023/12/22 15:37:44;;;;;;;1.20;0.90;;;;;;;11.58;39.38;91304.53;5089605;28;20396;-77
2023/12/22 15:40:10;;;;;;;0.90;0.90;;;;;;;11.66;38.05;91306.31;5089664;28;20046;-77
2023/12/22 15:42:36;;;;;;;0.80;0.80;;;;;;;11.62;39.11;91308.81;5090507;28;20132;-77
2023/12/22 15:45:01;;;;;;;1.08;0.90;;;;;;;11.42;40.06;91310.34;5089096;28;20438;-77
2023/12/22 15:47:27;;;;;;;1.40;1.20;;;;;;;11.35;40.43;91312.72;5088554;28;20122;-78
2023/12/22 15:49:53;;;;;;;3.50;1.30;;;;;;;11.26;41.11;91309.41;5088044;28;20396;-77
2023/12/22 15:52:19;;;;;;;1.67;1.08;;;;;;;11.16;41.01;91315.00;5089205;28;20051;-77
2023/12/22 15:54:44;;;;;;;1.20;1.10;;;;;;;11.09;41.18;91309.50;5088475;28;20032;-77
2023/12/22 15:57:10;;;;;;;2.45;1.00;;;;;;;10.96;42.85;91313.88;5088050;28;20351;-77
2023/12/22 15:59:36;;;;;;;0.90;0.90;;;;;;;10.79;42.63;91319.97;5088852;28;20032;-77
2023/12/22 16:02:02;;;;;;;5.75;1.15;;;;;;;10.70;42.73;91324.47;5087313;28;20507;-77
2023/12/22 16:04:29;;;;;;;0.80;0.80;;;;;;;10.58;43.17;91318.06;5088649;28;20086;-77
2023/12/22 16:06:54;;;;;;;0.90;0.90;;;;;;;10.49;43.95;91322.56;5088421;28;20060;-77
2023/12/22 16:09:21;;;;;;;2.80;1.25;;;;;;;10.38;43.73;91318.72;5087678;28;20511;-77
2023/12/22 16:11:46;;;;;;;1.92;1.15;;;;;;;10.26;45.21;91321.19;5087370;28;20043;-77
2023/12/22 16:14:12;;;;;;;1.10;1.00;;;;;;;10.15;45.31;91324.13;5087652;28;20380;-77
2023/12/22 16:16:38;;;;;;;0.80;0.80;;;;;;;10.02;45.36;91314.66;5087578;28;20036;-77
2023/12/22 16:19:03;;;;;;;1.00;0.90;;;;;;;10.04;45.64;91315.06;5087181;28;20098;-77
2023/12/22 16:21:30;;;;;;;0.90;0.90;;;;;;;10.03;45.20;91318.78;5087079;28;20047;-77
2023/12/22 16:23:55;;;;;;;0.90;0.90;;;;;;;10.01;45.68;91320.94;5086900;28;20028;-77
2023/12/22 16:26:23;;;;;;;0.90;0.90;;;;;;;9.92;46.43;91304.50;5086556;28;20037;-77
2023/12/22 16:28:49;;;;;;;0.85;0.85;;;;;;;9.84;46.04;91307.88;5086510;28;20070;-77
2023/12/22 16:31:16;;;;;;;1.63;1.00;;;;;;;9.78;46.60;91308.06;5075253;28;20102;-77
2023/12/22 16:33:42;;;;;;;0.95;0.80;;;;;;;9.77;46.42;91300.50;5073484;28;20025;-77
2023/12/22 16:36:10;;;;;;;0.80;0.80;;;;;;;9.71;47.20;91286.09;5073544;28;20068;-77
2023/12/22 16:38:36;;;;;;;0.90;0.90;;;;;;;9.60;48.17;91293.47;5073260;28;20120;-77
2023/12/22 16:41:06;;;;;;;0.90;0.90;;;;;;;9.53;47.39;91290.56;5073436;28;20609;-77
2023/12/22 16:43:34;;;;;;;1.20;1.10;;;;;;;9.48;47.81;91298.53;5073109;28;20098;-77
2023/12/22 16:46:00;;;;;;;1.10;1.00;;;;;;;9.53;46.92;91301.00;5073242;28;20024;-77
2023/12/22 16:48:26;;;;;;;0.98;0.90;;;;;;;9.55;47.34;91288.41;5089546;28;20059;-76
2023/12/22 16:50:52;;;;;;;1.58;1.10;;;;;;;9.56;46.75;91287.31;5093709;28;20024;-78
2023/12/22 16:53:17;;;;;;;1.75;1.10;;;;;;;9.75;45.55;91285.16;5093761;28;20036;-81
2023/12/22 16:55:43;;;;;;;5.20;2.20;;;;;;;9.75;46.11;91287.78;5089228;28;20024;-80
2023/12/22 16:58:09;;;;;;;1.52;1.20;;;;;;;9.73;46.41;91287.31;5100608;28;20060;-80
2023/12/22 17:00:34;;;;;;;1.20;1.10;;;;;;;9.70;46.12;91285.31;5089497;28;20032;-80
2023/12/22 17:03:00;;;;;;;2.85;1.50;;;;;;;9.65;47.08;91297.78;5096317;28;20521;-81
2023/12/22 17:05:25;;;;;;;1.83;1.30;;;;;;;9.55;47.06;91288.41;5086315;28;20028;-80
2023/12/22 17:07:51;;;;;;;5.72;3.88;;;;;;;9.49;48.03;91295.63;5086539;28;20071;-79
2023/12/22 17:10:17;;;;;;;3.28;2.05;;;;;;;9.43;47.43;91286.38;5089172;28;20039;-79
2023/12/22 17:12:43;;;;;;;2.17;1.30;;;;;;;9.37;47.94;91285.03;5090539;28;20044;-80
2023/12/22 17:15:15;;;;;;;4.05;1.10;;;;;;;9.31;48.59;91279.19;5094047;28;20031;-79
2023/12/22 17:17:41;;;;;;;1.13;0.98;;;;;;;9.24;48.46;91273.66;5100140;28;20040;-79
2023/12/22 17:20:08;;;;;;;1.73;1.05;;;;;;;9.22;48.61;91285.47;5100189;28;20046;-79
2023/12/22 17:22:34;;;;;;;1.65;1.25;;;;;;;9.18;49.40;91280.09;5096694;28;20028;-80
2023/12/22 17:24:59;;;;;;;1.77;1.17;;;;;;;9.14;49.00;91294.81;5094780;28;20025;-80
2023/12/22 17:27:27;;;;;;;2.17;1.30;;;;;;;9.10;48.41;91289.47;5083761;28;20049;-80
2023/12/22 17:29:52;;;;;;;8.98;5.70;;;;;;;9.11;48.25;91287.63;5085916;28;20028;-81
2023/12/22 17:32:18;;;;;;;4.35;2.30;;;;;;;9.07;48.79;91284.84;5100424;28;20035;-79
2023/12/22 17:34:44;;;;;;;2.78;1.27;;;;;;;9.09;49.19;91279.31;5103114;28;20054;-78
2023/12/22 17:37:11;;;;;;;1.23;1.08;;;;;;;9.06;48.32;91272.88;5079553;28;20040;-79
2023/12/22 17:39:37;;;;;;;2.38;1.45;;;;;;;9.05;48.60;91275.78;5092569;28;20031;-79
2023/12/22 17:42:02;;;;;;;3.83;2.25;;;;;;;8.99;48.76;91277.78;5087867;28;20040;-79
2023/12/22 17:44:28;;;;;;;2.58;1.65;;;;;;;9.03;48.66;91288.34;5081546;28;20539;-80
2023/12/22 17:47:02;;;;;;;1.98;1.30;;;;;;;9.04;48.35;91287.31;5100081;28;20036;-79
2023/12/22 17:49:29;;;;;;;1.98;1.20;;;;;;;9.05;48.53;91287.00;5086514;28;20059;-80
2023/12/22 17:51:57;;;;;;;1.20;1.10;;;;;;;9.01;48.74;91286.06;5101794;28;20483;-79
2023/12/22 17:54:23;;;;;;;2.63;1.30;;;;;;;8.98;48.80;91294.50;5088746;28;20581;-80
2023/12/22 17:56:48;;;;;;;2.67;1.40;;;;;;;8.95;49.13;91287.28;5082924;28;20037;-79
2023/12/22 17:59:14;;;;;;;1.95;1.30;;;;;;;8.93;48.87;91300.63;5092727;28;20028;-79
2023/12/22 18:01:44;;;;;;;3.78;1.77;;;;;;;8.89;49.26;91306.75;5091367;28;20028;-79
2023/12/22 18:04:10;;;;;;;3.92;1.73;;;;;;;8.90;49.40;91301.25;5081910;28;20035;-79
2023/12/22 18:06:36;;;;;;;5.72;1.98;;;;;;;8.85;50.50;91293.56;5100235;28;20081;-79
2023/12/22 18:09:03;;;;;;;2.90;1.70;;;;;;;8.78;50.10;91293.25;5098637;28;20480;-78
2023/12/22 18:11:29;;;;;;;3.80;1.80;;;;;;;8.74;50.62;91315.78;5075233;28;20031;-78
2023/12/22 18:13:55;;;;;;;6.32;2.92;;;;;;;8.91;47.94;91312.44;5081390;28;20042;-79
2023/12/22 18:16:21;;;;;;;3.38;1.50;;;;;;;9.01;47.96;91312.19;5078129;28;20345;-79
2023/12/22 18:19:01;;;;;;;2.92;1.58;;;;;;;9.05;47.96;91314.94;5064301;28;20056;-79
2023/12/22 18:21:26;;;;;;;6.55;3.13;;;;;;;9.04;48.39;91321.25;5083441;28;20135;-79
2023/12/22 18:23:52;;;;;;;4.93;2.28;;;;;;;9.03;48.28;91306.63;5098800;28;20048;-80
2023/12/22 18:26:18;;;;;;;3.75;1.80;;;;;;;9.03;48.16;91304.81;5093428;28;20048;-79
2023/12/22 18:28:46;;;;;;;7.35;2.90;;;;;;;9.02;47.94;91300.66;5085557;28;20523;-79
2023/12/22 18:31:12;;;;;;;2.63;1.63;;;;;;;9.04;47.91;91311.56;5084966;28;20047;-79
2023/12/22 18:33:38;;;;;;;15.10;3.72;;;;;;;9.08;49.42;91333.38;5094135;28;20951;-75
2023/12/22 18:36:04;;;;;;;4.57;1.60;;;;;;;9.44;56.71;91321.91;5075760;28;20087;-76
2023/12/22 18:38:29;;;;;;;2.05;1.17;;;;;;;9.62;46.86;91311.47;5090142;28;20028;-81
2023/12/22 18:40:55;;;;;;;2.70;1.40;;;;;;;9.68;45.89;91318.84;5089625;28;20029;-80
2023/12/22 18:43:20;;;;;;;1.00;0.90;;;;;;;9.68;45.81;91334.50;5077355;28;20098;-80
2023/12/22 18:45:46;;;;;;;2.00;1.35;;;;;;;9.63;46.95;91326.81;5088928;28;20036;-81
2023/12/22 18:48:11;;;;;;;1.08;1.00;;;;;;;9.52;47.10;91320.34;5094045;28;20082;-80
2023/12/22 18:50:37;;;;;;;1.10;1.00;;;;;;;9.41;47.58;91329.56;5087788;28;20044;-80
2023/12/22 18:53:02;;;;;;;1.60;0.90;;;;;;;9.33;46.83;91331.13;5090122;28;20047;-81
2023/12/22 18:55:28;;;;;;;1.65;1.10;;;;;;;9.31;47.17;91328.03;5097553;28;20043;-81
2023/12/22 18:57:54;;;;;;;1.30;1.20;;;;;;;9.31;46.90;91325.41;5091568;28;20036;-81
2023/12/22 19:00:20;;;;;;;2.58;1.20;;;;;;;9.32;47.12;91317.28;5091935;28;20036;-81
2023/12/22 19:02:45;;;;;;;2.45;1.40;;;;;;;9.31;46.93;91352.31;5089524;28;20368;-81
2023/12/22 19:05:11;;;;;;;1.88;1.10;;;;;;;9.33;46.42;91318.81;5088737;28;20041;-81
2023/12/22 19:07:37;;;;;;;3.50;2.05;;;;;;;9.45;46.47;91331.25;5088041;28;20038;-80
2023/12/22 19:10:03;;;;;;;2.30;1.40;;;;;;;9.45;46.44;91343.56;5103613;28;20028;-80
2023/12/22 19:12:28;;;;;;;0.90;0.90;;;;;;;9.59;44.59;91336.34;5099239;28;20430;-80
2023/12/22 19:14:54;;;;;;;3.10;1.60;;;;;;;10.11;42.29;91345.97;5099362;28;20029;-81
2023/12/22 19:17:19;;;;;;;2.25;1.35;;;;;;;10.12;43.27;91340.44;5090544;28;20115;-80
2023/12/22 19:19:45;;;;;;;1.75;1.30;;;;;;;10.21;41.75;91348.28;5078490;28;20102;-80
2023/12/22 19:22:11;;;;;;;2.83;1.50;;;;;;;10.11;43.28;91346.78;5093879;28;20032;-80
2023/12/22 19:24:37;;;;;;;1.40;1.10;;;;;;;10.29;41.77;91359.81;5086255;28;20099;-79
2023/12/22 19:27:03;;;;;;;1.73;1.02;;;;;;;10.83;41.10;91350.44;5092523;28;20036;-80
2023/12/22 19:29:28;;;;;;;1.25;1.10;;;;;;;10.60;41.51;91352.53;5089217;28;20040;-80
2023/12/22 19:31:54;;;;;;;0.93;0.93;;;;;;;10.49;42.21;91361.81;5078376;28;20088;-80
2023/12/22 19:34:20;;;;;;;1.98;1.30;;;;;;;10.65;41.10;91356.03;5082201;28;20046;-80
2023/12/22 19:36:45;;;;;;;1.73;1.20;;;;;;;10.49;42.45;91350.53;5091228;28;20040;-80
2023/12/22 19:39:11;;;;;;;2.50;1.58;;;;;;;10.44;42.03;91354.09;5085974;28;20103;-81
2023/12/22 19:41:36;;;;;;;1.83;1.10;;;;;;;10.30;43.22;91364.00;5088869;28;20032;-80
2023/12/22 19:44:02;;;;;;;1.10;1.00;;;;;;;10.30;41.36;91358.75;5095615;28;20032;-80
2023/12/22 19:46:28;;;;;;;1.13;0.95;;;;;;;10.49;40.53;91340.09;5088686;28;20077;-80
2023/12/22 19:48:53;;;;;;;1.13;1.02;;;;;;;10.72;40.69;91338.78;5092131;28;20043;-80
2023/12/22 19:51:20;;;;;;;4.95;2.40;;;;;;;10.72;40.92;91359.72;5086144;28;20035;-80
2023/12/22 19:53:48;;;;;;;5.35;1.63;;;;;;;10.51;41.98;91354.38;5090067;28;20416;-80
2023/12/22 19:56:14;;;;;;;0.80;0.80;;;;;;;10.34;41.84;91339.53;5081862;28;20032;-80
2023/12/22 19:58:39;;;;;;;3.00;1.70;;;;;;;10.32;42.21;91335.69;5088081;28;20111;-81
2023/12/22 20:01:06;;;;;;;2.72;1.20;;;;;;;10.39;40.48;91360.28;5083189;28;20029;-80
2023/12/22 20:03:31;;;;;;;0.90;0.90;;;;;;;11.10;37.93;91340.63;5078425;28;20028;-79
2023/12/22 20:05:59;;;;;;;1.48;0.98;;;;;;;11.03;38.85;91367.28;5079190;28;20043;-80
2023/12/22 20:08:26;;;;;;;1.00;0.90;;;;;;;10.89;39.53;91358.09;5087661;28;20057;-81
2023/12/22 20:10:52;;;;;;;1.75;1.27;;;;;;;11.07;39.24;91338.59;5087454;28;20134;-80
2023/12/22 20:13:18;;;;;;;7.18;3.75;;;;;;;10.74;40.99;91325.38;5095607;28;20032;-81
2023/12/22 20:15:44;;;;;;;4.07;2.00;;;;;;;10.55;41.72;91376.22;5086983;28;20032;-81
2023/12/22 20:18:10;;;;;;;1.13;1.00;;;;;;;10.79;39.53;91370.47;5088761;28;20373;-81
2023/12/22 20:20:35;;;;;;;2.70;1.67;;;;;;;10.63;41.21;91372.06;5094028;28;20149;-80
2023/12/22 20:23:01;;;;;;;1.10;0.98;;;;;;;10.40;41.27;91353.97;5090449;28;20032;-81
2023/12/22 20:25:27;;;;;;;1.40;1.00;;;;;;;10.33;41.36;91371.22;5090928;28;20035;-81
2023/12/22 20:27:52;;;;;;;1.10;0.82;;;;;;;10.68;38.87;91374.50;5090414;28;20046;-81
2023/12/22 20:30:18;;;;;;;2.10;1.00;;;;;;;10.51;40.45;91382.41;5093746;28;20039;-81
2023/12/22 20:32:47;;;;;;;1.00;0.90;;;;;;;10.52;41.23;91392.56;5097240;28;20506;-80
2023/12/22 20:35:14;;;;;;;1.05;0.90;;;;;;;11.13;39.55;91360.16;5093791;28;20051;-80
2023/12/22 20:37:39;;;;;;;1.00;0.90;;;;;;;10.98;40.09;91382.41;5092624;28;20070;-80
2023/12/22 20:40:07;;;;;;;1.00;0.90;;;;;;;10.80;40.80;91389.56;5092927;28;20024;-79
2023/12/22 20:42:33;;;;;;;1.77;1.27;;;;;;;10.59;41.75;91397.31;5093889;28;20313;-80
2023/12/22 20:45:00;;;;;;;2.00;1.30;;;;;;;10.33;43.00;91400.75;5101759;28;20311;-81
2023/12/22 20:47:26;;;;;;;1.85;1.30;;;;;;;10.25;42.76;91393.66;5100092;28;20040;-80
2023/12/22 20:49:52;;;;;;;1.70;1.20;;;;;;;10.05;44.56;91405.53;5097991;28;20105;-80
2023/12/22 20:52:23;;;;;;;1.65;1.20;;;;;;;9.84;45.21;91396.75;5092006;28;20035;-79
2023/12/22 20:54:49;;;;;;;1.50;1.20;;;;;;;9.75;44.58;91397.53;5084446;28;20048;-80
2023/12/22 20:57:15;;;;;;;1.33;1.10;;;;;;;9.62;44.81;91408.13;5103313;28;20483;-80
2023/12/22 20:59:41;;;;;;;1.67;1.08;;;;;;;9.78;43.48;91396.16;5094045;28;20028;-79
2023/12/22 21:02:08;;;;;;;1.63;1.15;;;;;;;9.68;44.42;91409.50;5085503;28;20028;-80
2023/12/22 21:04:40;;;;;;;1.55;1.10;;;;;;;9.63;45.06;91399.97;5103416;28;20109;-79
2023/12/22 21:07:06;;;;;;;0.98;0.85;;;;;;;9.47;46.53;91396.25;5094173;28;20036;-80
2023/12/22 21:09:35;;;;;;;1.55;1.20;;;;;;;9.62;45.15;91401.06;5108527;28;20027;-80
2023/12/22 21:12:08;;;;;;;1.85;1.20;;;;;;;9.43;45.67;91430.06;5104069;28;20036;-80
2023/12/22 21:14:33;;;;;;;0.90;0.90;;;;;;;9.40;45.61;91411.63;5084707;28;20040;-79
2023/12/22 21:16:59;;;;;;;1.63;1.00;;;;;;;9.37;44.92;91418.22;5104732;28;20031;-79
2023/12/22 21:19:26;;;;;;;1.00;0.90;;;;;;;9.37;44.89;91434.66;5087442;28;20050;-80
2023/12/22 21:21:51;;;;;;;1.40;0.98;;;;;;;9.62;43.30;91424.56;5075088;28;20036;-80
2023/12/22 21:24:17;;;;;;;0.90;0.90;;;;;;;9.71;44.06;91414.13;5097316;28;20035;-79
2023/12/22 21:26:44;;;;;;;0.93;0.90;;;;;;;9.59;44.95;91419.94;5088219;28;20157;-80
2023/12/22 21:29:09;;;;;;;0.80;0.80;;;;;;;9.49;45.26;91425.47;5079544;28;20031;-80
2023/12/22 21:31:35;;;;;;;0.80;0.80;;;;;;;9.33;44.42;91425.91;5086163;28;20021;-80
2023/12/22 21:34:02;;;;;;;0.70;0.70;;;;;;;9.49;43.44;91415.78;5105537;28;20054;-80
2023/12/22 21:36:28;;;;;;;3.38;1.60;;;;;;;9.59;43.38;91430.38;5107927;28;20051;-79
2023/12/22 21:38:54;;;;;;;1.48;1.10;;;;;;;9.51;44.74;91441.63;5105209;28;20033;-80
2023/12/22 21:41:23;;;;;;;0.80;0.80;;;;;;;9.41;44.94;91441.88;5084742;28;20036;-79
2023/12/22 21:43:49;;;;;;;2.58;0.80;;;;;;;9.30;45.16;91449.22;5069640;28;20037;-79
2023/12/22 21:46:15;;;;;;;0.77;0.77;;;;;;;9.23;45.64;91448.91;5091905;28;20046;-79
2023/12/22 21:48:43;;;;;;;0.80;0.80;;;;;;;9.12;46.26;91443.97;5100390;28;20072;-80
2023/12/22 21:51:09;;;;;;;0.80;0.80;;;;;;;9.05;46.04;91438.41;5101718;28;20080;-80
2023/12/22 21:53:35;;;;;;;0.80;0.80;;;;;;;8.93;46.21;91451.25;5091070;28;20039;-80
2023/12/22 21:56:01;;;;;;;0.80;0.80;;;;;;;8.92;46.13;91445.25;5098049;28;20149;-80
2023/12/22 21:58:28;;;;;;;1.00;0.90;;;;;;;9.15;43.03;91453.03;5101552;28;20123;-80
2023/12/22 22:00:54;;;;;;;1.38;1.10;;;;;;;9.34;42.28;91456.19;5104034;28;20047;-80
2023/12/22 22:03:21;;;;;;;1.10;1.00;;;;;;;9.59;41.07;91457.31;5101525;28;20499;-79
2023/12/22 22:05:47;;;;;;;1.50;1.02;;;;;;;9.64;41.04;91450.41;5100148;28;20027;-79
2023/12/22 22:08:22;;;;;;;3.03;1.40;;;;;;;9.93;40.44;91441.97;5094391;28;20072;-79
2023/12/22 22:10:48;;;;;;;1.73;1.10;;;;;;;9.83;41.18;91444.88;5093169;28;20530;-79
2023/12/22 22:13:14;;;;;;;3.40;1.00;;;;;;;9.78;41.70;91456.25;5099243;28;20028;-80
2023/12/22 22:15:40;;;;;;;0.77;0.77;;;;;;;9.75;40.96;91452.41;5097488;28;20039;-79
2023/12/22 22:18:11;;;;;;;1.38;0.80;;;;;;;9.73;41.19;91459.78;5100321;28;20036;-79
2023/12/22 22:20:37;;;;;;;0.80;0.80;;;;;;;9.60;42.35;91458.06;5092506;28;20107;-79
2023/12/22 22:23:03;;;;;;;3.33;1.77;;;;;;;9.62;41.56;91470.84;5100295;28;20108;-79
